SondeTracker

Meteorological Radiosondes Database

Operations

Sounding was ended - last measurement: 2022-12-06 13:23:23z

MAP
About Radiosonde

Number: T3950199

Launch Site: Ezeiza (AR)

Type: RS41

AUX: NO

Frequency: 403.500 MHz

Max Speed: 133 km/h at 10891 m

Average Speed: 47.12 km/h

Max Altitude: 27147 m

Average Ascent Speed: 5.41 m/s

Average Descent Speed: 26.37 m/s

Status: LOST

Status Changes
Launch Site Type AUX Frequency Status Finder Landing Point Description Changes made by
MHz LOST 0, 0 AUTO STATUS: Probably lost in the water [BOT]AUTO-STATUS - 2022-12-06 14:35:15z
APRS Statistics

Received Frames: 336

First Frame [UTC]: 2022-12-06 11:49:45z

Last Frame [UTC]: 2022-12-06 13:23:23z

Receivers: LW9EYP-12, LW9EYP-13, LW9EYP-15

Flight Time: 01:33:38 h

Distance From First Measurement: 54.68 km

Nearest City: Berisso (AR) [14.37 km]

Nearest Hunter: DVAS [21.24 km]

Ground Altitude: -123 m

Distance from QTH: 0.00 km

APRS Data
Receiver Number Date/Time [UTC] φ λ Course [°] Speed [km/h] Altitude [m] Description
LW9EYP-12T39501992022-12-06 13:23:23-34.7377-57.8574929810376Clb=-23.0m/s t=-39.6C h=3.1% 403.500MHz Type=RS41-SG TxOff=8h23m rdzTTGOsonde
LW9EYP-15T39501992022-12-06 13:23:13-34.7377-57.86019010410582Clb=-23.3m/s t=-40.6C h=2.9% p=-1.0hPa 403.499 MHz Type=RS41-SG ser=T3950199 Radiosonde
LW9EYP-13T39501992022-12-06 13:23:08-34.7377-57.86089210410628Clb=-23.4m/s t=-40.9C h=2.9% 403.500MHz Type=RS41-SG TxOff=8h23m rdzTTGOsonde
LW9EYP-12T39501992022-12-06 13:22:56-34.7378-57.86438712210859Clb=-24.1m/s t=-40.7C h=2.0% 403.500MHz Type=RS41-SG TxOff=8h23m rdzTTGOsonde
LW9EYP-13T39501992022-12-06 13:22:43-34.738-57.86828711111118Clb=-24.3m/s t=-41.5C h=1.9% 403.500MHz Type=RS41-SG TxOff=8h23m rdzTTGOsonde
LW9EYP-15T39501992022-12-06 13:22:32-34.738-57.87089110611308Clb=-24.3m/s t=-42.4C h=1.9% p=-1.0hPa 403.499 MHz Type=RS41-SG ser=T3950199 Radiosonde
LW9EYP-12T39501992022-12-06 13:22:27-34.738-57.87159311111356Clb=-24.7m/s t=-42.6C h=2.0% 403.500MHz Type=RS41-SG TxOff=8h23m rdzTTGOsonde
LW9EYP-13T39501992022-12-06 13:22:14-34.7379-57.87489610611600Clb=-25.1m/s t=-43.8C h=2.1% 403.500MHz Type=RS41-SG TxOff=8h24m rdzTTGOsonde
LW9EYP-12T39501992022-12-06 13:22:02-34.7378-57.8789210411846Clb=-25.2m/s t=-44.9C h=2.2% 403.500MHz Type=RS41-SG TxOff=8h24m rdzTTGOsonde
LW9EYP-15T39501992022-12-06 13:21:52-34.7378-57.88089010412068Clb=-24.8m/s t=-45.5C h=2.0% p=-1.0hPa 403.499 MHz Type=RS41-SG ser=T3950199 Radiosonde
LW9EYP-13T39501992022-12-06 13:21:47-34.7378-57.88189610412142Clb=-25.4m/s t=-46.0C h=2.2% 403.500MHz Type=RS41-SG TxOff=8h24m rdzTTGOsonde
LW9EYP-12T39501992022-12-06 13:21:39-34.7375-57.88439911112345Clb=-25.2m/s t=-47.5C h=2.6% 403.500MHz Type=RS41-SG TxOff=8h24m rdzTTGOsonde
LW9EYP-13T39501992022-12-06 13:21:17-34.7365-57.890510311912804Clb=-26.1m/s t=-50.6C h=3.6% 403.500MHz Type=RS41-SG TxOff=8h25m rdzTTGOsonde
LW9EYP-15T39501992022-12-06 13:21:15-34.7364-57.891210412012856Clb=-25.9m/s t=-51.1C h=3.6% p=-1.0hPa 403.499 MHz Type=RS41-SG ser=T3950199 Radiosonde
LW9EYP-12T39501992022-12-06 13:20:59-34.7356-57.895310211713165Clb=-26.6m/s t=-53.8C h=4.3% 403.500MHz Type=RS41-SG rdzTTGOsonde
LW9EYP-13T39501992022-12-06 13:20:49-34.7353-57.89819911113376Clb=-26.6m/s t=-55.6C h=4.5% 403.500MHz Type=RS41-SG TxOff=8h25m rdzTTGOsonde
LW9EYP-15T39501992022-12-06 13:20:36-34.735-57.90188910713670Clb=-26.6m/s t=-57.6C h=4.3% p=-1.0hPa 403.499 MHz Type=RS41-SG ser=T3950199 Radiosonde
LW9EYP-12T39501992022-12-06 13:20:24-34.7351-57.9042869313884Clb=-27.0m/s t=-58.8C h=4.4% 403.500MHz Type=RS41-SG rdzTTGOsonde
LW9EYP-13T39501992022-12-06 13:20:21-34.7351-57.9048888913939Clb=-27.7m/s t=-59.1C h=4.4% 403.500MHz Type=RS41-SG TxOff=8h25m rdzTTGOsonde
LW9EYP-15T39501992022-12-06 13:19:47-34.7346-57.90921187014523Clb=-28.6m/s t=-63.0C h=4.3% p=-1.0hPa 403.499 MHz Type=RS41-SG ser=T3950199 Radiosonde
LW9EYP-13T39501992022-12-06 13:19:46-34.7346-57.90921207014524Clb=-28.6m/s t=-63.0C h=4.5% 403.500MHz Type=RS41-SG rdzTTGOsonde
LW9EYP-12T39501992022-12-06 13:19:40-34.734-57.91031277814693Clb=-28.4m/s t=-64.2C h=4.5% 403.500MHz Type=RS41-SG rdzTTGOsonde
LW9EYP-13T39501992022-12-06 13:19:20-34.7323-57.91331178115099Clb=-29.4m/s t=-66.3C h=4.7% 403.500MHz Type=RS41-SG rdzTTGOsonde
LW9EYP-15T39501992022-12-06 13:19:05-34.7315-57.91561126915427Clb=-30.8m/s t=-66.6C h=4.2% p=-1.0hPa 403.499 MHz Type=RS41-SG ser=T3950199 Radiosonde
LW9EYP-13T39501992022-12-06 13:18:48-34.7307-57.91841057815825Clb=-31.1m/s t=-67.6C h=4.6% 403.500MHz Type=RS41-SG TxOff=8h27m rdzTTGOsonde
LW9EYP-15T39501992022-12-06 13:18:24-34.7298-57.92231135416430Clb=-33.1m/s t=-66.0C h=3.1% p=-1.0hPa 403.499 MHz Type=RS41-SG ser=T3950199 Radiosonde
LW9EYP-13T39501992022-12-06 13:18:21-34.7297-57.92261155416496Clb=-33.4m/s t=-66.2C h=3.4% 403.500MHz Type=RS41-SG TxOff=8h27m rdzTTGOsonde
LW9EYP-12T39501992022-12-06 13:18:07-34.7291-57.92441044816897Clb=-33.5m/s t=-68.2C h=3.2% 403.500MHz Type=RS41-SG rdzTTGOsonde
LW9EYP-13T39501992022-12-06 13:17:56-34.7289-57.92551104117202Clb=-34.5m/s t=-69.4C h=3.5% 403.500MHz Type=RS41-SG TxOff=8h27m rdzTTGOsonde
LW9EYP-15T39501992022-12-06 13:17:44-34.7285-57.92631263917481Clb=-35.2m/s t=-70.4C h=3.3% p=-1.0hPa 403.499 MHz Type=RS41-SG ser=T3950199 Radiosonde
LW9EYP-13T39501992022-12-06 13:17:23-34.7275-57.92781204817944Clb=-36.1m/s t=-72.1C h=3.8% 403.500MHz Type=RS41-SG TxOff=8h27m rdzTTGOsonde
LW9EYP-15T39501992022-12-06 13:16:58-34.7264-57.92941493118611Clb=-37.8m/s t=-72.2C h=3.1% p=-1.0hPa 403.499 MHz Type=RS41-SG ser=T3950199 Radiosonde
LW9EYP-13T39501992022-12-06 13:16:54-34.7262-57.92951603318688Clb=-37.7m/s t=-72.3C h=3.5% 403.500MHz Type=RS41-SG TxOff=8h27m rdzTTGOsonde
LW9EYP-13T39501992022-12-06 13:16:26-34.7242-57.93021504319557Clb=-40.7m/s t=-72.0C h=3.7% 403.500MHz Type=RS41-SG TxOff=8h28m rdzTTGOsonde
LW9EYP-15T39501992022-12-06 13:16:20-34.7234-57.93061545219849Clb=-41.5m/s t=-70.3C h=2.9% p=-1.0hPa 403.499 MHz Type=RS41-SG ser=T3950199 Radiosonde
LW9EYP-13T39501992022-12-06 13:16:02-34.7224-57.9321953020457Clb=-45.1m/s t=-65.8C h=2.1% 403.500MHz Type=RS41-SG TxOff=8h28m rdzTTGOsonde
LW9EYP-15T39501992022-12-06 13:15:41-34.7228-57.933356621239Clb=-48.2m/s t=-65.3C h=1.8% p=-1.0hPa 403.499 MHz Type=RS41-SG ser=T3950199 Radiosonde
LW9EYP-13T39501992022-12-06 13:15:36-34.7229-57.933234221381Clb=-48.8m/s t=-64.1C h=1.8% 403.500MHz Type=RS41-SG rdzTTGOsonde
LW9EYP-15T39501992022-12-06 13:14:56-34.7223-57.933207622809Clb=-54.0m/s t=-61.6C h=1.4% p=-1.0hPa 403.499 MHz Type=RS41-SG ser=T3950199 Radiosonde
LW9EYP-13T39501992022-12-06 13:14:35-34.7218-57.93321291323649Clb=-58.1m/s t=-59.4C h=1.4% 403.500MHz Type=RS41-SG rdzTTGOsonde
LW9EYP-15T39501992022-12-06 13:14:15-34.7214-57.93321741124722Clb=-61.2m/s t=-57.6C h=1.2% p=-1.0hPa 403.499 MHz Type=RS41-SG ser=T3950199 Radiosonde
LW9EYP-13T39501992022-12-06 13:14:06-34.7213-57.9332177724969Clb=-62.1m/s t=-57.4C h=1.3% 403.500MHz Type=RS41-SG rdzTTGOsonde
LW9EYP-15T39501992022-12-06 13:13:33-34.7217-57.933432626757Clb=-60.6m/s t=-50.9C h=0.6% p=-1.0hPa 403.499 MHz Type=RS41-SG ser=T3950199 Radiosonde
LW9EYP-15T39501992022-12-06 13:12:47-34.7222-57.933861927147Clb=8.2m/s t=-50.7C h=0.7% p=-1.0hPa 403.499 MHz Type=RS41-SG ser=T3950199 Radiosonde
LW9EYP-15T39501992022-12-06 13:12:05-34.7227-57.9341111526935Clb=5.8m/s t=-51.6C h=0.7% p=-1.0hPa 403.499 MHz Type=RS41-SG ser=T3950199 Radiosonde
LW9EYP-15T39501992022-12-06 13:11:57-34.7235-57.9343105626726Clb=4.3m/s t=-51.5C h=0.7% p=-1.0hPa 403.499 MHz Type=RS41-SG ser=T3950199 Radiosonde
LW9EYP-13T39501992022-12-06 13:11:56-34.7235-57.9344127226702Clb=5.3m/s t=-51.7C h=0.8% 403.500MHz Type=RS41-SG rdzTTGOsonde
LW9EYP-13T39501992022-12-06 13:11:52-34.7234-57.9341255926564Clb=6.4m/s t=-52.3C h=0.8% 403.500MHz Type=RS41-SG rdzTTGOsonde
LW9EYP-15T39501992022-12-06 13:11:50-34.7234-57.934110726519Clb=5.3m/s t=-52.5C h=0.7% p=-1.0hPa 403.499 MHz Type=RS41-SG ser=T3950199 Radiosonde
LW9EYP-13T39501992022-12-06 13:11:47-34.7236-57.934182026426Clb=7.4m/s t=-52.4C h=0.8% 403.500MHz Type=RS41-SG rdzTTGOsonde
LW9EYP-15T39501992022-12-06 13:11:43-34.7243-57.9343172626316Clb=6.6m/s t=-52.5C h=0.7% p=-1.0hPa 403.499 MHz Type=RS41-SG ser=T3950199 Radiosonde
LW9EYP-13T39501992022-12-06 13:11:42-34.7245-57.9344261726290Clb=5.1m/s t=-52.4C h=0.8% 403.500MHz Type=RS41-SG rdzTTGOsonde
LW9EYP-13T39501992022-12-06 13:11:38-34.7256-57.9349502226134Clb=6.5m/s t=-53.2C h=0.9% 403.500MHz Type=RS41-SG rdzTTGOsonde
LW9EYP-13T39501992022-12-06 13:11:37-34.7261-57.935513425969Clb=5.9m/s t=-53.6C h=0.9% 403.500MHz Type=RS41-SG rdzTTGOsonde
LW9EYP-12T39501992022-12-06 13:11:34-34.7265-57.9355240225874Clb=6.5m/s t=-54.2C h=0.9% 403.500MHz Type=RS41-SG rdzTTGOsonde
LW9EYP-13T39501992022-12-06 13:11:27-34.7266-57.93563081125781Clb=6.9m/s t=-55.5C h=1.0% 403.500MHz Type=RS41-SG rdzTTGOsonde
LW9EYP-15T39501992022-12-06 13:11:18-34.7266-57.9356202725711Clb=5.0m/s t=-56.1C h=0.9% p=-1.0hPa 403.499 MHz Type=RS41-SG ser=T3950199 Radiosonde
LW9EYP-13T39501992022-12-06 13:11:06-34.7266-57.9354347725637Clb=6.1m/s t=-56.1C h=1.0% 403.500MHz Type=RS41-SG rdzTTGOsonde
LW9EYP-15T39501992022-12-06 13:10:37-34.727-57.9354292425503Clb=5.7m/s t=-56.2C h=0.9% p=-1.0hPa 403.499 MHz Type=RS41-SG ser=T3950199 Radiosonde
LW9EYP-15T39501992022-12-06 13:09:45-34.7263-57.93571591525287Clb=7.5m/s t=-57.3C h=1.0% p=-1.0hPa 403.499 MHz Type=RS41-SG ser=T3950199 Radiosonde
LW9EYP-15T39501992022-12-06 13:08:50-34.7259-57.936283625088Clb=9.2m/s t=-58.4C h=1.1% p=-1.0hPa 403.499 MHz Type=RS41-SG ser=T3950199 Radiosonde
LW9EYP-15T39501992022-12-06 13:07:53-34.7252-57.9362011724876Clb=5.9m/s t=-58.8C h=1.1% p=-1.0hPa 403.499 MHz Type=RS41-SG ser=T3950199 Radiosonde
LW9EYP-15T39501992022-12-06 13:06:58-34.7242-57.9352274724672Clb=6.4m/s t=-58.8C h=1.1% p=-1.0hPa 403.499 MHz Type=RS41-SG ser=T3950199 Radiosonde
LW9EYP-15T39501992022-12-06 13:06:12-34.7234-57.9342215924476Clb=6.1m/s t=-58.6C h=1.0% p=-1.0hPa 403.499 MHz Type=RS41-SG ser=T3950199 Radiosonde
LW9EYP-13T39501992022-12-06 13:05:51-34.7229-57.93362271524396Clb=8.3m/s t=-58.8C h=1.2% 403.500MHz Type=RS41-SG rdzTTGOsonde
LW9EYP-15T39501992022-12-06 13:05:25-34.7228-57.9329289924270Clb=7.4m/s t=-58.7C h=1.0% p=-1.0hPa 403.499 MHz Type=RS41-SG ser=T3950199 Radiosonde
LW9EYP-13T39501992022-12-06 13:04:43-34.7228-57.9332681124092Clb=4.6m/s t=-60.6C h=1.3% 403.500MHz Type=RS41-SG rdzTTGOsonde
LW9EYP-15T39501992022-12-06 13:04:36-34.7229-57.9334842824058Clb=6.2m/s t=-60.7C h=1.1% p=-1.0hPa 403.499 MHz Type=RS41-SG ser=T3950199 Radiosonde
LW9EYP-13T39501992022-12-06 13:03:56-34.7232-57.9346491323929Clb=6.7m/s t=-60.9C h=1.4% 403.500MHz Type=RS41-SG rdzTTGOsonde
LW9EYP-15T39501992022-12-06 13:03:38-34.7233-57.93491012223856Clb=7.2m/s t=-60.6C h=1.2% p=-1.0hPa 403.499 MHz Type=RS41-SG ser=T3950199 Radiosonde
LW9EYP-13T39501992022-12-06 13:03:19-34.7231-57.9353912023780Clb=5.6m/s t=-60.4C h=1.3% 403.500MHz Type=RS41-SG rdzTTGOsonde
LW9EYP-15T39501992022-12-06 13:02:52-34.7225-57.93631332023643Clb=6.9m/s t=-61.2C h=1.2% p=-1.0hPa 403.499 MHz Type=RS41-SG ser=T3950199 Radiosonde
LW9EYP-13T39501992022-12-06 13:02:50-34.7225-57.93631352223643Clb=6.9m/s t=-61.2C h=1.4% 403.500MHz Type=RS41-SG rdzTTGOsonde
LW9EYP-13T39501992022-12-06 13:02:17-34.7217-57.93721562823497Clb=7.3m/s t=-62.6C h=1.5% 403.500MHz Type=RS41-SG rdzTTGOsonde
LW9EYP-15T39501992022-12-06 13:02:01-34.721-57.93741742023434Clb=8.0m/s t=-62.7C h=1.4% p=-1.0hPa 403.499 MHz Type=RS41-SG ser=T3950199 Radiosonde
LW9EYP-13T39501992022-12-06 13:01:45-34.7201-57.93741933323361Clb=7.5m/s t=-62.4C h=1.5% 403.500MHz Type=RS41-SG rdzTTGOsonde
LW9EYP-12T39501992022-12-06 13:01:30-34.7196-57.93721893323291Clb=5.7m/s t=-62.4C h=1.5% 403.500MHz Type=RS41-SG rdzTTGOsonde
LW9EYP-15T39501992022-12-06 13:01:14-34.7192-57.9369245923231Clb=6.1m/s t=-62.4C h=1.3% p=-1.0hPa 403.499 MHz Type=RS41-SG ser=T3950199 Radiosonde
LW9EYP-13T39501992022-12-06 13:01:04-34.7191-57.93682261923205Clb=9.6m/s t=-62.5C h=1.5% 403.500MHz Type=RS41-SG rdzTTGOsonde
LW9EYP-12T39501992022-12-06 13:00:51-34.7188-57.93662302023160Clb=4.0m/s t=-62.7C h=1.6% 403.500MHz Type=RS41-SG rdzTTGOsonde
LW9EYP-13T39501992022-12-06 13:00:27-34.7186-57.9362372023068Clb=8.4m/s t=-62.3C h=1.6% 403.500MHz Type=RS41-SG rdzTTGOsonde
LW9EYP-15T39501992022-12-06 13:00:16-34.7186-57.9357264923028Clb=7.0m/s t=-62.3C h=1.4% p=-1.0hPa 403.499 MHz Type=RS41-SG ser=T3950199 Radiosonde
LW9EYP-12T39501992022-12-06 13:00:15-34.7186-57.93572661123028Clb=7.0m/s t=-62.3C h=1.6% 403.500MHz Type=RS41-SG rdzTTGOsonde
LW9EYP-13T39501992022-12-06 12:59:39-34.7184-57.9353281622921Clb=6.2m/s t=-62.3C h=1.6% 403.500MHz Type=RS41-SG rdzTTGOsonde
LW9EYP-12T39501992022-12-06 12:59:31-34.7184-57.935367222894Clb=5.9m/s t=-62.2C h=1.6% 403.500MHz Type=RS41-SG rdzTTGOsonde
LW9EYP-15T39501992022-12-06 12:59:07-34.7181-57.93512261522821Clb=5.8m/s t=-62.4C h=1.5% p=-1.0hPa 403.499 MHz Type=RS41-SG ser=T3950199 Radiosonde
LW9EYP-13T39501992022-12-06 12:58:56-34.718-57.935217722788Clb=6.4m/s t=-62.2C h=1.7% 403.500MHz Type=RS41-SG rdzTTGOsonde
LW9EYP-12T39501992022-12-06 12:58:48-34.718-57.935251222761Clb=7.9m/s t=-62.2C h=1.6% 403.500MHz Type=RS41-SG rdzTTGOsonde
LW9EYP-15T39501992022-12-06 12:58:03-34.718-57.9349273222617Clb=5.6m/s t=-62.5C h=1.4% p=-1.0hPa 403.499 MHz Type=RS41-SG ser=T3950199 Radiosonde
LW9EYP-12T39501992022-12-06 12:57:49-34.718-57.935111922582Clb=6.7m/s t=-62.9C h=1.7% 403.500MHz Type=RS41-SG rdzTTGOsonde
LW9EYP-13T39501992022-12-06 12:57:23-34.7176-57.9351521322494Clb=5.8m/s t=-64.1C h=1.8% 403.500MHz Type=RS41-SG rdzTTGOsonde
LW9EYP-15T39501992022-12-06 12:57:02-34.7177-57.935294422415Clb=6.0m/s t=-64.9C h=1.7% p=-1.0hPa 403.499 MHz Type=RS41-SG ser=T3950199 Radiosonde
LW9EYP-12T39501992022-12-06 12:56:55-34.7177-57.9353108622395Clb=5.7m/s t=-64.7C h=1.9% 403.500MHz Type=RS41-SG rdzTTGOsonde
LW9EYP-13T39501992022-12-06 12:56:45-34.7176-57.93561121722356Clb=6.0m/s t=-64.7C h=1.9% 403.500MHz Type=RS41-SG rdzTTGOsonde
LW9EYP-12T39501992022-12-06 12:56:20-34.7174-57.9361382422260Clb=6.1m/s t=-64.9C h=1.9% 403.500MHz Type=RS41-SG rdzTTGOsonde
LW9EYP-15T39501992022-12-06 12:56:08-34.717-57.93621711722215Clb=6.8m/s t=-64.7C h=1.7% p=-1.0hPa 403.499 MHz Type=RS41-SG ser=T3950199 Radiosonde
LW9EYP-13T39501992022-12-06 12:56:05-34.7169-57.93621862022201Clb=5.4m/s t=-64.9C h=1.9% 403.500MHz Type=RS41-SG rdzTTGOsonde
LW9EYP-12T39501992022-12-06 12:55:42-34.7162-57.93611993022112Clb=4.6m/s t=-65.1C h=1.9% 403.500MHz Type=RS41-SG rdzTTGOsonde
LW9EYP-13T39501992022-12-06 12:55:26-34.7156-57.9361941922062Clb=3.8m/s t=-65.3C h=2.0% 403.500MHz Type=RS41-SG rdzTTGOsonde
LW9EYP-15T39501992022-12-06 12:55:12-34.7153-57.93591822422011Clb=5.6m/s t=-65.1C h=1.8% p=-1.0hPa 403.499 MHz Type=RS41-SG ser=T3950199 Radiosonde
LW9EYP-12T39501992022-12-06 12:55:00-34.715-57.93591822421986Clb=6.8m/s t=-65.0C h=2.0% 403.500MHz Type=RS41-SG rdzTTGOsonde
LW9EYP-13T39501992022-12-06 12:54:48-34.7148-57.93592061321935Clb=5.1m/s t=-64.8C h=2.0% 403.500MHz Type=RS41-SG rdzTTGOsonde
LW9EYP-12T39501992022-12-06 12:54:18-34.7143-57.93562181921823Clb=6.4m/s t=-64.5C h=2.0% 403.500MHz Type=RS41-SG rdzTTGOsonde
LW9EYP-15T39501992022-12-06 12:54:17-34.7142-57.93562231521811Clb=5.9m/s t=-64.5C h=1.8% p=-1.0hPa 403.499 MHz Type=RS41-SG ser=T3950199 Radiosonde
LW9EYP-13T39501992022-12-06 12:54:13-34.7142-57.93562161121805Clb=6.5m/s t=-64.4C h=2.0% 403.500MHz Type=RS41-SG rdzTTGOsonde
LW9EYP-13T39501992022-12-06 12:53:33-34.7141-57.935438421670Clb=5.1m/s t=-64.5C h=2.0% 403.500MHz Type=RS41-SG rdzTTGOsonde
LW9EYP-12T39501992022-12-06 12:53:32-34.7141-57.9354334221665Clb=4.3m/s t=-64.5C h=2.1% 403.500MHz Type=RS41-SG rdzTTGOsonde
LW9EYP-15T39501992022-12-06 12:53:23-34.7141-57.9354111421622Clb=4.7m/s t=-64.5C h=1.8% p=-1.0hPa 403.499 MHz Type=RS41-SG ser=T3950199 Radiosonde
LW9EYP-13T39501992022-12-06 12:52:49-34.7138-57.9356105921520Clb=5.5m/s t=-64.5C h=2.0% 403.500MHz Type=RS41-SG rdzTTGOsonde
LW9EYP-15T39501992022-12-06 12:52:23-34.7137-57.9355171121429Clb=6.7m/s t=-64.7C h=1.9% p=-1.0hPa 403.499 MHz Type=RS41-SG ser=T3950199 Radiosonde
LW9EYP-13T39501992022-12-06 12:52:01-34.7139-57.9356342921379Clb=10.7m/s t=-64.7C h=2.1% 403.500MHz Type=RS41-SG rdzTTGOsonde
LW9EYP-13T39501992022-12-06 12:51:23-34.7148-57.9358281721246Clb=5.0m/s t=-65.5C h=2.2% 403.500MHz Type=RS41-SG rdzTTGOsonde
LW9EYP-15T39501992022-12-06 12:51:19-34.7149-57.936322021220Clb=8.7m/s t=-65.6C h=2.1% p=-1.0hPa 403.499 MHz Type=RS41-SG ser=T3950199 Radiosonde
LW9EYP-13T39501992022-12-06 12:50:46-34.7159-57.9367313021105Clb=9.2m/s t=-65.3C h=2.3% 403.500MHz Type=RS41-SG rdzTTGOsonde
LW9EYP-15T39501992022-12-06 12:50:19-34.7168-57.9376382821012Clb=6.7m/s t=-64.5C h=2.2% p=-1.0hPa 403.499 MHz Type=RS41-SG ser=T3950199 Radiosonde
LW9EYP-13T39501992022-12-06 12:50:04-34.7171-57.9381573320971Clb=8.3m/s t=-64.4C h=2.5% 403.500MHz Type=RS41-SG rdzTTGOsonde
LW9EYP-13T39501992022-12-06 12:49:22-34.718-57.9393562820842Clb=5.7m/s t=-64.1C h=2.5% 403.500MHz Type=RS41-SG rdzTTGOsonde
LW9EYP-15T39501992022-12-06 12:49:14-34.7182-57.9396552020808Clb=6.6m/s t=-64.5C h=2.3% p=-1.0hPa 403.499 MHz Type=RS41-SG ser=T3950199 Radiosonde
LW9EYP-13T39501992022-12-06 12:48:40-34.7184-57.94081042420708Clb=7.3m/s t=-65.2C h=2.8% 403.500MHz Type=RS41-SG rdzTTGOsonde
LW9EYP-15T39501992022-12-06 12:48:08-34.7184-57.94231023020601Clb=6.7m/s t=-65.8C h=2.8% p=-1.0hPa 403.499 MHz Type=RS41-SG ser=T3950199 Radiosonde
LW9EYP-13T39501992022-12-06 12:47:56-34.7184-57.9428913520567Clb=7.2m/s t=-65.9C h=3.2% 403.500MHz Type=RS41-SG rdzTTGOsonde
LW9EYP-13T39501992022-12-06 12:47:12-34.7177-57.94511194820428Clb=8.3m/s t=-66.4C h=3.4% 403.500MHz Type=RS41-SG rdzTTGOsonde
LW9EYP-15T39501992022-12-06 12:47:04-34.7174-57.94571184820394Clb=8.1m/s t=-66.7C h=3.3% p=-1.0hPa 403.499 MHz Type=RS41-SG ser=T3950199 Radiosonde
LW9EYP-13T39501992022-12-06 12:46:32-34.7161-57.94811325720284Clb=5.5m/s t=-67.3C h=3.9% 403.500MHz Type=RS41-SG rdzTTGOsonde
LW9EYP-15T39501992022-12-06 12:46:08-34.7146-57.94991386720189Clb=6.4m/s t=-67.3C h=4.1% p=-1.0hPa 403.499 MHz Type=RS41-SG ser=T3950199 Radiosonde
LW9EYP-13T39501992022-12-06 12:45:54-34.7138-57.95071396720149Clb=7.1m/s t=-67.1C h=4.4% 403.500MHz Type=RS41-SG rdzTTGOsonde
LW9EYP-13T39501992022-12-06 12:45:10-34.7107-57.95341518120005Clb=8.9m/s t=-67.4C h=4.5% 403.500MHz Type=RS41-SG rdzTTGOsonde
LW9EYP-15T39501992022-12-06 12:45:02-34.7101-57.95381516919978Clb=7.7m/s t=-68.1C h=4.5% p=-1.0hPa 403.499 MHz Type=RS41-SG ser=T3950199 Radiosonde
LW9EYP-13T39501992022-12-06 12:44:30-34.7077-57.95481605919871Clb=8.3m/s t=-69.5C h=5.5% 403.500MHz Type=RS41-SG rdzTTGOsonde
LW9EYP-12T39501992022-12-06 12:44:24-34.7073-57.9551685619851Clb=6.8m/s t=-69.7C h=5.6% 403.500MHz Type=RS41-SG rdzTTGOsonde
LW9EYP-15T39501992022-12-06 12:44:00-34.7057-57.95531665219772Clb=6.8m/s t=-70.1C h=5.4% p=-1.0hPa 403.499 MHz Type=RS41-SG ser=T3950199 Radiosonde
LW9EYP-12T39501992022-12-06 12:43:59-34.7042-57.95591574819685Clb=5.9m/s t=-71.2C h=6.3% 403.500MHz Type=RS41-SG rdzTTGOsonde
LW9EYP-13T39501992022-12-06 12:43:52-34.7026-57.95671464619586Clb=5.7m/s t=-72.0C h=6.8% 403.500MHz Type=RS41-SG rdzTTGOsonde
LW9EYP-13T39501992022-12-06 12:43:50-34.7006-57.95781684119451Clb=5.8m/s t=-72.0C h=7.1% 403.500MHz Type=RS41-SG rdzTTGOsonde
LW9EYP-15T39501992022-12-06 12:43:49-34.6992-57.95811644619364Clb=5.6m/s t=-71.6C h=6.9% p=-1.0hPa 403.499 MHz Type=RS41-SG ser=T3950199 Radiosonde
LW9EYP-13T39501992022-12-06 12:43:43-34.696-57.95871684319194Clb=7.2m/s t=-72.5C h=7.1% 403.500MHz Type=RS41-SG rdzTTGOsonde
LW9EYP-13T39501992022-12-06 12:43:33-34.6938-57.9591774319076Clb=6.5m/s t=-73.3C h=7.6% 403.500MHz Type=RS41-SG rdzTTGOsonde
LW9EYP-15T39501992022-12-06 12:43:28-34.6923-57.95911863018997Clb=4.0m/s t=-73.2C h=7.5% p=-1.0hPa 403.499 MHz Type=RS41-SG ser=T3950199 Radiosonde
LW9EYP-13T39501992022-12-06 12:43:22-34.6916-57.95911804318949Clb=7.3m/s t=-73.4C h=7.9% 403.500MHz Type=RS41-SG rdzTTGOsonde
LW9EYP-13T39501992022-12-06 12:43:03-34.69-57.95921883018832Clb=7.3m/s t=-72.9C h=7.5% 403.500MHz Type=RS41-SG rdzTTGOsonde
LW9EYP-15T39501992022-12-06 12:43:02-34.6898-57.95911773318814Clb=4.9m/s t=-72.8C h=7.0% p=-1.0hPa 403.499 MHz Type=RS41-SG ser=T3950199 Radiosonde
LW9EYP-12T39501992022-12-06 12:42:41-34.6887-57.95951793718740Clb=6.2m/s t=-73.0C h=8.4% 403.500MHz Type=RS41-SG rdzTTGOsonde
LW9EYP-13T39501992022-12-06 12:42:32-34.6882-57.95961614818710Clb=5.9m/s t=-73.2C h=7.8% 403.500MHz Type=RS41-SG rdzTTGOsonde
LW9EYP-15T39501992022-12-06 12:42:08-34.687-57.96031603918634Clb=4.8m/s t=-72.7C h=7.0% p=-1.0hPa 403.499 MHz Type=RS41-SG ser=T3950199 Radiosonde
LW9EYP-13T39501992022-12-06 12:42:00-34.6864-57.96081373318586Clb=5.2m/s t=-72.8C h=7.4% 403.500MHz Type=RS41-SG rdzTTGOsonde
LW9EYP-13T39501992022-12-06 12:41:59-34.6853-57.96221374418473Clb=7.5m/s t=-72.6C h=7.5% 403.500MHz Type=RS41-SG rdzTTGOsonde
LW9EYP-15T39501992022-12-06 12:41:58-34.6851-57.96251334318454Clb=6.9m/s t=-72.6C h=6.6% p=-1.0hPa 403.499 MHz Type=RS41-SG ser=T3950199 Radiosonde
LW9EYP-13T39501992022-12-06 12:41:55-34.6835-57.96381494118352Clb=5.2m/s t=-73.5C h=7.2% 403.500MHz Type=RS41-SG rdzTTGOsonde
LW9EYP-15T39501992022-12-06 12:41:53-34.6827-57.9651153518268Clb=6.1m/s t=-73.4C h=6.6% p=-1.0hPa 403.499 MHz Type=RS41-SG ser=T3950199 Radiosonde
LW9EYP-13T39501992022-12-06 12:41:51-34.6815-57.9681175618099Clb=5.3m/s t=-73.4C h=7.1% 403.500MHz Type=RS41-SG rdzTTGOsonde
LW9EYP-15T39501992022-12-06 12:41:50-34.6813-57.96861185418073Clb=5.3m/s t=-73.1C h=6.6% p=-1.0hPa 403.499 MHz Type=RS41-SG ser=T3950199 Radiosonde
LW9EYP-13T39501992022-12-06 12:41:49-34.6802-57.97071295217981Clb=4.7m/s t=-72.4C h=6.6% 403.500MHz Type=RS41-SG rdzTTGOsonde
LW9EYP-13T39501992022-12-06 12:41:48-34.6785-57.97311385217854Clb=6.2m/s t=-72.3C h=6.3% 403.500MHz Type=RS41-SG rdzTTGOsonde
LW9EYP-13T39501992022-12-06 12:41:46-34.6766-57.97541364317716Clb=5.2m/s t=-71.6C h=5.9% 403.500MHz Type=RS41-SG rdzTTGOsonde
LW9EYP-13T39501992022-12-06 12:41:43-34.6754-57.97711293917595Clb=5.8m/s t=-71.0C h=5.7% 403.500MHz Type=RS41-SG rdzTTGOsonde
LW9EYP-15T39501992022-12-06 12:41:35-34.6748-57.97851063317502Clb=6.3m/s t=-70.8C h=5.3% p=-1.0hPa 403.499 MHz Type=RS41-SG ser=T3950199 Radiosonde
LW9EYP-13T39501992022-12-06 12:41:25-34.6747-57.97911083517465Clb=5.2m/s t=-70.7C h=5.7% 403.500MHz Type=RS41-SG rdzTTGOsonde
LW9EYP-13T39501992022-12-06 12:41:05-34.6742-57.98131074117339Clb=4.4m/s t=-70.7C h=5.5% 403.500MHz Type=RS41-SG rdzTTGOsonde
LW9EYP-15T39501992022-12-06 12:41:00-34.6741-57.98181104117315Clb=7.9m/s t=-70.5C h=5.0% p=-1.0hPa 403.499 MHz Type=RS41-SG ser=T3950199 Radiosonde
LW9EYP-13T39501992022-12-06 12:40:29-34.6738-57.9838924317218Clb=5.1m/s t=-69.8C h=5.4% 403.500MHz Type=RS41-SG rdzTTGOsonde
LW9EYP-15T39501992022-12-06 12:40:00-34.6737-57.9857894617130Clb=6.7m/s t=-69.5C h=4.8% p=-1.0hPa 403.499 MHz Type=RS41-SG ser=T3950199 Radiosonde
LW9EYP-13T39501992022-12-06 12:39:48-34.6737-57.9864994117101Clb=6.1m/s t=-69.2C h=5.0% 403.500MHz Type=RS41-SG rdzTTGOsonde
LW9EYP-13T39501992022-12-06 12:39:02-34.6734-57.98931035616980Clb=5.8m/s t=-69.0C h=5.1% 403.500MHz Type=RS41-SG rdzTTGOsonde
LW9EYP-15T39501992022-12-06 12:38:53-34.6732-57.991084816949Clb=8.1m/s t=-68.8C h=4.7% p=-1.0hPa 403.499 MHz Type=RS41-SG ser=T3950199 Radiosonde
LW9EYP-13T39501992022-12-06 12:38:16-34.6726-57.99231145416859Clb=6.4m/s t=-68.0C h=5.0% 403.500MHz Type=RS41-SG rdzTTGOsonde
LW9EYP-15T39501992022-12-06 12:37:42-34.6718-57.99441135016776Clb=5.6m/s t=-67.7C h=4.5% p=-1.0hPa 403.499 MHz Type=RS41-SG ser=T3950199 Radiosonde
LW9EYP-13T39501992022-12-06 12:37:29-34.6715-57.99511164616751Clb=5.1m/s t=-67.5C h=5.1% 403.500MHz Type=RS41-SG rdzTTGOsonde
LW9EYP-13T39501992022-12-06 12:36:40-34.6705-57.99811155416645Clb=3.9m/s t=-67.4C h=5.3% 403.500MHz Type=RS41-SG rdzTTGOsonde
LW9EYP-15T39501992022-12-06 12:36:31-34.6702-57.99891085216619Clb=3.5m/s t=-67.4C h=4.7% p=-1.0hPa 403.499 MHz Type=RS41-SG ser=T3950199 Radiosonde
LW9EYP-13T39501992022-12-06 12:35:54-34.6693-58.00151135716538Clb=4.6m/s t=-67.1C h=5.4% 403.500MHz Type=RS41-SG rdzTTGOsonde
LW9EYP-15T39501992022-12-06 12:35:20-34.6686-58.0041055916441Clb=5.9m/s t=-67.3C h=5.2% p=-1.0hPa 403.499 MHz Type=RS41-SG ser=T3950199 Radiosonde
LW9EYP-13T39501992022-12-06 12:34:59-34.6683-58.0051105916405Clb=5.7m/s t=-67.6C h=5.6% 403.500MHz Type=RS41-SG rdzTTGOsonde
LW9EYP-13T39501992022-12-06 12:34:03-34.6672-58.00921107816282Clb=5.3m/s t=-68.1C h=6.0% 403.500MHz Type=RS41-SG rdzTTGOsonde
LW9EYP-15T39501992022-12-06 12:33:55-34.667-58.011047416258Clb=5.9m/s t=-68.1C h=5.5% p=-1.0hPa 403.499 MHz Type=RS41-SG ser=T3950199 Radiosonde
LW9EYP-13T39501992022-12-06 12:33:14-34.6663-58.014998116160Clb=5.1m/s t=-68.7C h=6.3% 403.500MHz Type=RS41-SG rdzTTGOsonde
LW9EYP-12T39501992022-12-06 12:32:40-34.6324-58.172510210612321Clb=8.9m/s t=-47.2C h=1.8% 403.500MHz Type=RS41-SG rdzTTGOsonde
LW9EYP-13T39501992022-12-06 12:32:21-34.6321-58.174710010612278Clb=5.5m/s t=-46.8C h=1.8% 403.500MHz Type=RS41-SG rdzTTGOsonde
LW9EYP-15T39501992022-12-06 12:31:50-34.6316-58.178810010412211Clb=3.1m/s t=-46.2C h=1.7% p=-1.0hPa 403.499 MHz Type=RS41-SG ser=T3950199 Radiosonde
LW9EYP-12T39501992022-12-06 12:31:48-34.6316-58.178810110412211Clb=3.1m/s t=-46.2C h=1.8% 403.500MHz Type=RS41-SG rdzTTGOsonde
LW9EYP-13T39501992022-12-06 12:31:29-34.6313-58.18129510212169Clb=3.8m/s t=-46.0C h=1.8% 403.500MHz Type=RS41-SG rdzTTGOsonde
LW9EYP-12T39501992022-12-06 12:31:02-34.6309-58.18499510912094Clb=8.2m/s t=-45.3C h=1.8% 403.500MHz Type=RS41-SG rdzTTGOsonde
LW9EYP-13T39501992022-12-06 12:30:43-34.6307-58.1873929812044Clb=7.6m/s t=-44.9C h=1.9% 403.500MHz Type=RS41-SG rdzTTGOsonde
LW9EYP-15T39501992022-12-06 12:30:37-34.6307-58.18839410912027Clb=5.3m/s t=-44.9C h=1.8% p=-1.0hPa 403.499 MHz Type=RS41-SG ser=T3950199 Radiosonde
LW9EYP-12T39501992022-12-06 12:30:10-34.6306-58.1928910711956Clb=3.6m/s t=-44.8C h=2.0% 403.500MHz Type=RS41-SG rdzTTGOsonde
LW9EYP-13T39501992022-12-06 12:29:53-34.6306-58.19389010011923Clb=6.2m/s t=-44.7C h=2.0% 403.500MHz Type=RS41-SG rdzTTGOsonde
LW9EYP-15T39501992022-12-06 12:29:24-34.6307-58.1979889811850Clb=6.5m/s t=-44.4C h=2.0% p=-1.0hPa 403.499 MHz Type=RS41-SG ser=T3950199 Radiosonde
LW9EYP-12T39501992022-12-06 12:29:20-34.6307-58.19829210011845Clb=5.2m/s t=-44.4C h=2.1% 403.500MHz Type=RS41-SG rdzTTGOsonde
LW9EYP-13T39501992022-12-06 12:29:03-34.6306-58.20049210611808Clb=5.6m/s t=-44.3C h=2.2% 403.500MHz Type=RS41-SG rdzTTGOsonde
LW9EYP-12T39501992022-12-06 12:28:33-34.6306-58.20499410911731Clb=4.6m/s t=-44.1C h=2.3% 403.500MHz Type=RS41-SG rdzTTGOsonde
LW9EYP-13T39501992022-12-06 12:28:19-34.6305-58.20699410911698Clb=5.2m/s t=-43.9C h=2.3% 403.500MHz Type=RS41-SG rdzTTGOsonde
LW9EYP-15T39501992022-12-06 12:28:13-34.6305-58.20799310911681Clb=7.5m/s t=-43.8C h=2.0% p=-1.0hPa 403.499 MHz Type=RS41-SG ser=T3950199 Radiosonde
LW9EYP-12T39501992022-12-06 12:27:48-34.6303-58.21159910411615Clb=4.6m/s t=-43.5C h=2.0% 403.500MHz Type=RS41-SG rdzTTGOsonde
LW9EYP-13T39501992022-12-06 12:27:33-34.6302-58.21379410611577Clb=5.8m/s t=-43.3C h=2.0% 403.500MHz Type=RS41-SG rdzTTGOsonde
LW9EYP-15T39501992022-12-06 12:27:06-34.63-58.21799210711507Clb=6.7m/s t=-43.0C h=1.8% p=-1.0hPa 403.499 MHz Type=RS41-SG ser=T3950199 Radiosonde
LW9EYP-12T39501992022-12-06 12:27:04-34.63-58.21799310911507Clb=6.7m/s t=-43.0C h=1.9% 403.500MHz Type=RS41-SG rdzTTGOsonde
LW9EYP-13T39501992022-12-06 12:26:51-34.6299-58.22019410911468Clb=5.9m/s t=-42.9C h=2.0% 403.500MHz Type=RS41-SG rdzTTGOsonde
LW9EYP-12T39501992022-12-06 12:26:24-34.6299-58.22469012011392Clb=6.5m/s t=-42.7C h=2.0% 403.500MHz Type=RS41-SG rdzTTGOsonde
LW9EYP-13T39501992022-12-06 12:26:06-34.6298-58.22739310711345Clb=6.1m/s t=-42.4C h=2.0% 403.500MHz Type=RS41-SG rdzTTGOsonde
LW9EYP-15T39501992022-12-06 12:26:00-34.6298-58.22879111911322Clb=6.3m/s t=-42.2C h=1.9% p=-1.0hPa 403.499 MHz Type=RS41-SG ser=T3950199 Radiosonde
LW9EYP-12T39501992022-12-06 12:25:40-34.6297-58.23149110211280Clb=3.9m/s t=-42.0C h=2.0% 403.500MHz Type=RS41-SG rdzTTGOsonde
LW9EYP-13T39501992022-12-06 12:25:20-34.6296-58.23439311511235Clb=4.5m/s t=-41.8C h=2.0% 403.500MHz Type=RS41-SG rdzTTGOsonde
LW9EYP-12T39501992022-12-06 12:24:46-34.6295-58.23828810911168Clb=7.3m/s t=-41.6C h=2.0% 403.500MHz Type=RS41-SG rdzTTGOsonde
LW9EYP-15T39501992022-12-06 12:24:45-34.6296-58.23888311111154Clb=5.3m/s t=-41.5C h=1.9% p=-1.0hPa 403.499 MHz Type=RS41-SG ser=T3950199 Radiosonde
LW9EYP-13T39501992022-12-06 12:24:25-34.6296-58.24129311711112Clb=5.8m/s t=-41.3C h=2.0% 403.500MHz Type=RS41-SG rdzTTGOsonde
LW9EYP-12T39501992022-12-06 12:23:59-34.6298-58.24528612011053Clb=6.1m/s t=-41.1C h=2.1% 403.500MHz Type=RS41-SG rdzTTGOsonde
LW9EYP-13T39501992022-12-06 12:23:39-34.6299-58.24848611111002Clb=5.2m/s t=-40.7C h=2.0% 403.500MHz Type=RS41-SG rdzTTGOsonde
LW9EYP-15T39501992022-12-06 12:23:33-34.63-58.24988612010983Clb=7.4m/s t=-40.6C h=1.9% p=-1.0hPa 403.499 MHz Type=RS41-SG ser=T3950199 Radiosonde
LW9EYP-12T39501992022-12-06 12:22:52-34.6301-58.25579213010897Clb=4.2m/s t=-40.3C h=2.3% 403.500MHz Type=RS41-SG rdzTTGOsonde
LW9EYP-13T39501992022-12-06 12:22:49-34.6301-58.25619213310891Clb=7.1m/s t=-40.4C h=2.3% 403.500MHz Type=RS41-SG rdzTTGOsonde
LW9EYP-15T39501992022-12-06 12:22:16-34.6303-58.26148711910812Clb=7.9m/s t=-40.4C h=2.7% p=-1.0hPa 403.499 MHz Type=RS41-SG ser=T3950199 Radiosonde
LW9EYP-13T39501992022-12-06 12:21:59-34.6303-58.26359011310776Clb=6.3m/s t=-40.2C h=2.8% 403.500MHz Type=RS41-SG rdzTTGOsonde
LW9EYP-12T39501992022-12-06 12:21:57-34.6303-58.26388811710771Clb=5.4m/s t=-40.2C h=2.9% 403.500MHz Type=RS41-SG rdzTTGOsonde
LW9EYP-13T39501992022-12-06 12:21:07-34.6302-58.2719312210685Clb=3.8m/s t=-40.4C h=3.6% 403.500MHz Type=RS41-SG rdzTTGOsonde
LW9EYP-15T39501992022-12-06 12:20:59-34.6302-58.27249611310645Clb=6.0m/s t=-40.7C h=3.7% p=-1.0hPa 403.499 MHz Type=RS41-SG ser=T3950199 Radiosonde
LW9EYP-12T39501992022-12-06 12:20:54-34.6302-58.27289711310640Clb=4.4m/s t=-40.7C h=3.8% 403.500MHz Type=RS41-SG rdzTTGOsonde
LW9EYP-13T39501992022-12-06 12:19:59-34.6298-58.2789510610550Clb=5.1m/s t=-40.6C h=3.9% 403.500MHz Type=RS41-SG rdzTTGOsonde
LW9EYP-12T39501992022-12-06 12:19:42-34.6298-58.27979210910520Clb=6.8m/s t=-40.8C h=4.8% 403.500MHz Type=RS41-SG rdzTTGOsonde
LW9EYP-15T39501992022-12-06 12:19:10-34.6296-58.28239511110474Clb=6.8m/s t=-41.5C h=8.0% p=-1.0hPa 403.499 MHz Type=RS41-SG ser=T3950199 Radiosonde
LW9EYP-13T39501992022-12-06 12:18:49-34.6294-58.2844949610417Clb=8.4m/s t=-41.8C h=15.1% 403.500MHz Type=RS41-SG rdzTTGOsonde
LW9EYP-12T39501992022-12-06 12:18:39-34.6295-58.2858879110383Clb=5.9m/s t=-42.0C h=19.9% 403.500MHz Type=RS41-SG rdzTTGOsonde
LW9EYP-13T39501992022-12-06 12:17:57-34.6296-58.29859110289Clb=7.0m/s t=-41.6C h=23.7% 403.500MHz Type=RS41-SG rdzTTGOsonde
LW9EYP-15T39501992022-12-06 12:17:52-34.6297-58.2908838110274Clb=4.2m/s t=-41.5C h=25.2% p=-1.0hPa 403.499 MHz Type=RS41-SG ser=T3950199 Radiosonde
LW9EYP-12T39501992022-12-06 12:17:48-34.6297-58.2911858010269Clb=4.8m/s t=-41.5C h=25.9% 403.500MHz Type=RS41-SG rdzTTGOsonde
LW9EYP-13T39501992022-12-06 12:17:13-34.6298-58.29481008110177Clb=5.8m/s t=-40.8C h=26.6% 403.500MHz Type=RS41-SG rdzTTGOsonde
LW9EYP-12T39501992022-12-06 12:17:05-34.6298-58.2958809110151Clb=7.5m/s t=-40.6C h=25.6% 403.500MHz Type=RS41-SG rdzTTGOsonde
LW9EYP-15T39501992022-12-06 12:16:45-34.6299-58.298896910084Clb=4.9m/s t=-40.0C h=25.7% p=-1.0hPa 403.499 MHz Type=RS41-SG ser=T3950199 Radiosonde
LW9EYP-13T39501992022-12-06 12:16:27-34.63-58.2998867210033Clb=6.8m/s t=-39.6C h=25.8% 403.500MHz Type=RS41-SG rdzTTGOsonde
LW9EYP-12T39501992022-12-06 12:16:21-34.63-58.3003975610013Clb=9.2m/s t=-39.4C h=25.0% 403.500MHz Type=RS41-SG rdzTTGOsonde
LW9EYP-13T39501992022-12-06 12:15:59-34.6296-58.3033101619894Clb=7.7m/s t=-38.5C h=24.8% 403.500MHz Type=RS41-SG rdzTTGOsonde
LW9EYP-13T39501992022-12-06 12:15:58-34.6289-58.306893599740Clb=8.9m/s t=-37.3C h=19.0% 403.500MHz Type=RS41-SG rdzTTGOsonde
LW9EYP-12T39501992022-12-06 12:15:57-34.6288-58.3072105469718Clb=6.3m/s t=-37.3C h=18.2% 403.500MHz Type=RS41-SG rdzTTGOsonde
LW9EYP-15T39501992022-12-06 12:15:56-34.6286-58.308786549642Clb=5.7m/s t=-36.8C h=18.0% p=-1.0hPa 403.499 MHz Type=RS41-SG ser=T3950199 Radiosonde
LW9EYP-13T39501992022-12-06 12:15:55-34.6286-58.310198509586Clb=3.8m/s t=-36.5C h=21.8% 403.500MHz Type=RS41-SG rdzTTGOsonde
LW9EYP-13T39501992022-12-06 12:15:54-34.6288-58.313587529447Clb=6.2m/s t=-35.4C h=23.6% 403.500MHz Type=RS41-SG rdzTTGOsonde
LW9EYP-13T39501992022-12-06 12:15:51-34.6292-58.316879549310Clb=8.4m/s t=-34.1C h=18.1% 403.500MHz Type=RS41-SG rdzTTGOsonde
LW9EYP-12T39501992022-12-06 12:15:50-34.6293-58.317273469291Clb=5.1m/s t=-33.9C h=18.5% 403.500MHz Type=RS41-SG rdzTTGOsonde
LW9EYP-13T39501992022-12-06 12:15:49-34.6299-58.3285569181Clb=4.3m/s t=-33.0C h=19.9% 403.500MHz Type=RS41-SG rdzTTGOsonde
LW9EYP-13T39501992022-12-06 12:15:47-34.6303-58.323792619048Clb=8.7m/s t=-32.3C h=20.3% 403.500MHz Type=RS41-SG rdzTTGOsonde
LW9EYP-12T39501992022-12-06 12:15:46-34.6303-58.324184679035Clb=6.0m/s t=-32.2C h=17.9% 403.500MHz Type=RS41-SG rdzTTGOsonde
LW9EYP-13T39501992022-12-06 12:15:44-34.6305-58.327698698917Clb=5.8m/s t=-31.2C h=13.2% 403.500MHz Type=RS41-SG rdzTTGOsonde
LW9EYP-12T39501992022-12-06 12:15:43-34.6304-58.3281101708906Clb=5.1m/s t=-31.1C h=14.7% 403.500MHz Type=RS41-SG rdzTTGOsonde
LW9EYP-15T39501992022-12-06 12:15:35-34.6305-58.329883598845Clb=7.3m/s t=-30.6C h=13.3% p=-1.0hPa 403.499 MHz Type=RS41-SG ser=T3950199 Radiosonde
LW9EYP-13T39501992022-12-06 12:15:27-34.6305-58.331588618797Clb=8.7m/s t=-30.2C h=8.6% 403.500MHz Type=RS41-SG rdzTTGOsonde
LW9EYP-13T39501992022-12-06 12:15:09-34.6307-58.335386618662Clb=6.7m/s t=-29.6C h=7.3% 403.500MHz Type=RS41-SG rdzTTGOsonde
LW9EYP-15T39501992022-12-06 12:15:08-34.6307-58.335693638651Clb=5.6m/s t=-29.6C h=6.8% p=-1.0hPa 403.499 MHz Type=RS41-SG ser=T3950199 Radiosonde
LW9EYP-13T39501992022-12-06 12:14:43-34.6302-58.339299528537Clb=4.4m/s t=-28.9C h=5.4% 403.500MHz Type=RS41-SG rdzTTGOsonde
LW9EYP-12T39501992022-12-06 12:14:42-34.6302-58.339299528537Clb=4.4m/s t=-28.9C h=5.4% 403.500MHz Type=RS41-SG rdzTTGOsonde
LW9EYP-15T39501992022-12-06 12:14:18-34.6297-58.3412111508477Clb=5.9m/s t=-28.7C h=5.9% p=-1.0hPa 403.499 MHz Type=RS41-SG ser=T3950199 Radiosonde
LW9EYP-12T39501992022-12-06 12:13:57-34.6295-58.3425102578425Clb=5.8m/s t=-28.5C h=5.7% 403.500MHz Type=RS41-SG rdzTTGOsonde
LW9EYP-13T39501992022-12-06 12:13:55-34.6294-58.3427103598419Clb=6.5m/s t=-28.5C h=5.7% 403.500MHz Type=RS41-SG rdzTTGOsonde
LW9EYP-12T39501992022-12-06 12:13:14-34.6288-58.3459107508316Clb=4.8m/s t=-28.0C h=14.4% 403.500MHz Type=RS41-SG rdzTTGOsonde
LW9EYP-13T39501992022-12-06 12:13:12-34.6287-58.3461107528311Clb=5.5m/s t=-28.0C h=14.6% 403.500MHz Type=RS41-SG rdzTTGOsonde
LW9EYP-12T39501992022-12-06 12:12:27-34.6278-58.3488117548209Clb=9.2m/s t=-27.4C h=20.2% 403.500MHz Type=RS41-SG rdzTTGOsonde
LW9EYP-13T39501992022-12-06 12:12:24-34.6277-58.349117568199Clb=10.0m/s t=-27.3C h=21.3% 403.500MHz Type=RS41-SG rdzTTGOsonde
LW9EYP-15T39501992022-12-06 12:12:00-34.6267-58.3505120488135Clb=6.2m/s t=-26.9C h=25.6% p=-1.0hPa 403.499 MHz Type=RS41-SG ser=T3950199 Radiosonde
LW9EYP-12T39501992022-12-06 12:11:40-34.6264-58.3516111578098Clb=7.4m/s t=-26.5C h=24.9% 403.500MHz Type=RS41-SG rdzTTGOsonde
LW9EYP-13T39501992022-12-06 12:11:36-34.6262-58.3519111638085Clb=7.9m/s t=-26.4C h=24.5% 403.500MHz Type=RS41-SG rdzTTGOsonde
LW9EYP-12T39501992022-12-06 12:10:52-34.625-58.3546125677977Clb=3.8m/s t=-25.3C h=23.6% 403.500MHz Type=RS41-SG rdzTTGOsonde
LW9EYP-13T39501992022-12-06 12:10:47-34.6248-58.3549121567966Clb=9.0m/s t=-25.2C h=23.1% 403.500MHz Type=RS41-SG rdzTTGOsonde
LW9EYP-12T39501992022-12-06 12:10:18-34.5894-58.3986127284013Clb=6.3m/s t=3.3C h=5.4% 403.500MHz Type=RS41-SG rdzTTGOsonde
LW9EYP-13T39501992022-12-06 12:09:53-34.5892-58.3989102223965Clb=7.5m/s t=3.5C h=7.6% 403.500MHz Type=RS41-SG rdzTTGOsonde
LW9EYP-12T39501992022-12-06 12:09:17-34.5886-58.3995163173902Clb=3.5m/s t=3.8C h=8.6% 403.500MHz Type=RS41-SG rdzTTGOsonde
LW9EYP-15T39501992022-12-06 12:09:03-34.5885-58.399610793867Clb=7.1m/s t=4.1C h=8.7% p=-1.0hPa 403.499 MHz Type=RS41-SG ser=T3950199 Radiosonde
LW9EYP-13T39501992022-12-06 12:08:58-34.5884-58.3997120203862Clb=5.6m/s t=4.1C h=8.8% 403.500MHz Type=RS41-SG rdzTTGOsonde
LW9EYP-12T39501992022-12-06 12:08:28-34.588-58.4005129353777Clb=4.6m/s t=4.7C h=9.4% 403.500MHz Type=RS41-SG rdzTTGOsonde
LW9EYP-13T39501992022-12-06 12:08:05-34.5877-58.401116333735Clb=7.8m/s t=5.1C h=9.5% 403.500MHz Type=RS41-SG rdzTTGOsonde
LW9EYP-15T39501992022-12-06 12:07:44-34.5873-58.4016110263684Clb=8.1m/s t=5.5C h=9.5% p=-1.0hPa 403.499 MHz Type=RS41-SG ser=T3950199 Radiosonde
LW9EYP-12T39501992022-12-06 12:07:35-34.5872-58.4019117333668Clb=2.8m/s t=5.7C h=9.8% 403.500MHz Type=RS41-SG rdzTTGOsonde
LW9EYP-13T39501992022-12-06 12:07:13-34.587-58.402296203628Clb=5.8m/s t=6.0C h=10.3% 403.500MHz Type=RS41-SG rdzTTGOsonde
LW9EYP-12T39501992022-12-06 12:06:49-34.5865-58.4029126223561Clb=5.8m/s t=6.5C h=10.7% 403.500MHz Type=RS41-SG rdzTTGOsonde
LW9EYP-15T39501992022-12-06 12:06:33-34.5863-58.4033133313509Clb=8.6m/s t=6.8C h=10.6% p=-1.0hPa 403.499 MHz Type=RS41-SG ser=T3950199 Radiosonde
LW9EYP-13T39501992022-12-06 12:06:30-34.5863-58.4033135333509Clb=8.6m/s t=6.8C h=10.6% 403.500MHz Type=RS41-SG rdzTTGOsonde
LW9EYP-12T39501992022-12-06 12:05:59-34.5859-58.4037140113433Clb=5.3m/s t=7.2C h=12.9% 403.500MHz Type=RS41-SG rdzTTGOsonde
LW9EYP-13T39501992022-12-06 12:05:40-34.5856-58.40498203384Clb=6.7m/s t=7.5C h=13.1% 403.500MHz Type=RS41-SG rdzTTGOsonde
LW9EYP-15T39501992022-12-06 12:05:17-34.5853-58.404410363322Clb=4.7m/s t=7.9C h=13.3% p=-1.0hPa 403.499 MHz Type=RS41-SG ser=T3950199 Radiosonde
LW9EYP-12T39501992022-12-06 12:05:10-34.5853-58.404511293313Clb=4.8m/s t=7.9C h=13.9% 403.500MHz Type=RS41-SG rdzTTGOsonde
LW9EYP-13T39501992022-12-06 12:04:50-34.5851-58.4049113303262Clb=6.4m/s t=8.1C h=14.9% 403.500MHz Type=RS41-SG rdzTTGOsonde
LW9EYP-12T39501992022-12-06 12:04:17-34.5848-58.4058121243182Clb=7.0m/s t=8.7C h=9.8% 403.500MHz Type=RS41-SG rdzTTGOsonde
LW9EYP-15T39501992022-12-06 12:03:58-34.5846-58.4059139113137Clb=5.4m/s t=8.9C h=9.9% p=-1.0hPa 403.499 MHz Type=RS41-SG ser=T3950199 Radiosonde
LW9EYP-13T39501992022-12-06 12:03:56-34.5846-58.4059141133137Clb=5.4m/s t=8.9C h=9.9% 403.500MHz Type=RS41-SG rdzTTGOsonde
LW9EYP-12T39501992022-12-06 12:03:28-34.5844-58.406314973055Clb=9.3m/s t=9.2C h=11.0% 403.500MHz Type=RS41-SG rdzTTGOsonde
LW9EYP-13T39501992022-12-06 12:03:07-34.5843-58.406460152998Clb=7.1m/s t=9.5C h=11.6% 403.500MHz Type=RS41-SG rdzTTGOsonde
LW9EYP-15T39501992022-12-06 12:02:47-34.5843-58.406616742929Clb=8.1m/s t=9.8C h=12.8% p=-1.0hPa 403.499 MHz Type=RS41-SG ser=T3950199 Radiosonde
LW9EYP-12T39501992022-12-06 12:02:43-34.5843-58.406616962929Clb=8.1m/s t=9.8C h=12.8% 403.500MHz Type=RS41-SG rdzTTGOsonde
LW9EYP-13T39501992022-12-06 12:02:22-34.5845-58.406844112859Clb=7.9m/s t=10.4C h=12.9% 403.500MHz Type=RS41-SG rdzTTGOsonde
LW9EYP-12T39501992022-12-06 12:01:56-34.5848-58.407348242783Clb=6.0m/s t=11.1C h=12.1% 403.500MHz Type=RS41-SG rdzTTGOsonde
LW9EYP-15T39501992022-12-06 12:01:40-34.5848-58.407666202727Clb=6.0m/s t=11.7C h=12.0% p=-1.0hPa 403.499 MHz Type=RS41-SG ser=T3950199 Radiosonde
LW9EYP-13T39501992022-12-06 12:01:38-34.5848-58.407668202727Clb=6.0m/s t=11.7C h=12.0% 403.500MHz Type=RS41-SG rdzTTGOsonde
LW9EYP-12T39501992022-12-06 12:01:12-34.5848-58.408299192643Clb=7.5m/s t=12.4C h=11.2% 403.500MHz Type=RS41-SG rdzTTGOsonde
LW9EYP-13T39501992022-12-06 12:00:57-34.5849-58.408673302598Clb=6.7m/s t=12.8C h=11.1% 403.500MHz Type=RS41-SG rdzTTGOsonde
LW9EYP-15T39501992022-12-06 12:00:36-34.5851-58.409137112524Clb=9.0m/s t=13.4C h=11.1% p=-1.0hPa 403.499 MHz Type=RS41-SG ser=T3950199 Radiosonde
LW9EYP-12T39501992022-12-06 12:00:25-34.5851-58.409399202505Clb=4.0m/s t=13.5C h=10.9% 403.500MHz Type=RS41-SG rdzTTGOsonde
LW9EYP-13T39501992022-12-06 12:00:08-34.5851-58.409698202462Clb=4.7m/s t=13.8C h=11.0% 403.500MHz Type=RS41-SG rdzTTGOsonde
LW9EYP-12T39501992022-12-06 11:59:28-34.585-58.410596332377Clb=6.7m/s t=14.3C h=12.6% 403.500MHz Type=RS41-SG rdzTTGOsonde
LW9EYP-13T39501992022-12-06 11:59:09-34.585-58.41184222333Clb=7.8m/s t=14.7C h=12.8% 403.500MHz Type=RS41-SG rdzTTGOsonde
LW9EYP-12T39501992022-12-06 11:58:33-34.5849-58.412114222246Clb=5.0m/s t=15.3C h=13.2% 403.500MHz Type=RS41-SG rdzTTGOsonde
LW9EYP-13T39501992022-12-06 11:58:18-34.5848-58.41215142209Clb=4.6m/s t=15.5C h=13.8% 403.500MHz Type=RS41-SG rdzTTGOsonde
LW9EYP-15T39501992022-12-06 11:57:47-34.5847-58.4125137192144Clb=6.2m/s t=16.0C h=14.1% p=-1.0hPa 403.499 MHz Type=RS41-SG ser=T3950199 Radiosonde
LW9EYP-12T39501992022-12-06 11:57:38-34.5846-58.412613342124Clb=6.4m/s t=16.0C h=15.0% 403.500MHz Type=RS41-SG rdzTTGOsonde
LW9EYP-13T39501992022-12-06 11:57:24-34.5846-58.412899192093Clb=5.7m/s t=16.2C h=15.4% 403.500MHz Type=RS41-SG rdzTTGOsonde
LW9EYP-12T39501992022-12-06 11:56:54-34.5841-58.413177132000Clb=5.5m/s t=17.0C h=15.6% 403.500MHz Type=RS41-SG rdzTTGOsonde
LW9EYP-13T39501992022-12-06 11:56:43-34.584-58.4131147241968Clb=6.0m/s t=17.2C h=15.5% 403.500MHz Type=RS41-SG rdzTTGOsonde
LW9EYP-15T39501992022-12-06 11:56:40-34.5838-58.4132177261949Clb=5.7m/s t=17.4C h=15.4% p=-1.0hPa 403.499 MHz Type=RS41-SG ser=T3950199 Radiosonde
LW9EYP-12T39501992022-12-06 11:56:11-34.5835-58.4134137131872Clb=8.5m/s t=18.1C h=15.4% 403.500MHz Type=RS41-SG rdzTTGOsonde
LW9EYP-13T39501992022-12-06 11:56:00-34.5833-58.4135147151840Clb=3.6m/s t=18.4C h=15.7% 403.500MHz Type=RS41-SG rdzTTGOsonde
LW9EYP-15T39501992022-12-06 11:55:36-34.5829-58.4137169191760Clb=6.1m/s t=19.1C h=13.5% p=-1.0hPa 403.499 MHz Type=RS41-SG ser=T3950199 Radiosonde
LW9EYP-12T39501992022-12-06 11:55:27-34.5828-58.4137187191748Clb=6.8m/s t=19.2C h=13.0% 403.500MHz Type=RS41-SG rdzTTGOsonde
LW9EYP-13T39501992022-12-06 11:55:17-34.5826-58.4137141221715Clb=5.8m/s t=19.5C h=12.8% 403.500MHz Type=RS41-SG rdzTTGOsonde
LW9EYP-12T39501992022-12-06 11:54:41-34.5818-58.4139147221630Clb=4.9m/s t=20.3C h=12.5% 403.500MHz Type=RS41-SG rdzTTGOsonde
LW9EYP-13T39501992022-12-06 11:54:21-34.5815-58.4142166261590Clb=5.5m/s t=20.7C h=12.0% 403.500MHz Type=RS41-SG rdzTTGOsonde
LW9EYP-15T39501992022-12-06 11:54:19-34.5814-58.4142196191581Clb=5.8m/s t=20.8C h=11.8% p=-1.0hPa 403.499 MHz Type=RS41-SG ser=T3950199 Radiosonde
LW9EYP-12T39501992022-12-06 11:53:51-34.5809-58.4143168171510Clb=5.0m/s t=21.3C h=11.0% 403.500MHz Type=RS41-SG rdzTTGOsonde
LW9EYP-13T39501992022-12-06 11:53:36-34.5807-58.4144150201470Clb=6.6m/s t=21.6C h=9.4% 403.500MHz Type=RS41-SG rdzTTGOsonde
LW9EYP-15T39501992022-12-06 11:53:04-34.5804-58.4146165151399Clb=5.2m/s t=22.2C h=8.5% p=-1.0hPa 403.499 MHz Type=RS41-SG ser=T3950199 Radiosonde
LW9EYP-12T39501992022-12-06 11:52:57-34.5803-58.4146161191394Clb=6.0m/s t=22.3C h=8.4% 403.500MHz Type=RS41-SG rdzTTGOsonde
LW9EYP-13T39501992022-12-06 11:52:43-34.5802-58.414617771358Clb=8.7m/s t=22.6C h=7.2% 403.500MHz Type=RS41-SG rdzTTGOsonde
LW9EYP-12T39501992022-12-06 11:52:04-34.5794-58.4149183171277Clb=6.0m/s t=23.0C h=5.4% 403.500MHz Type=RS41-SG rdzTTGOsonde
LW9EYP-13T39501992022-12-06 11:51:55-34.5791-58.414918691241Clb=4.7m/s t=23.0C h=5.5% 403.500MHz Type=RS41-SG rdzTTGOsonde
LW9EYP-15T39501992022-12-06 11:51:54-34.579-58.4149128131220Clb=6.4m/s t=23.0C h=-1.0% p=-1.0hPa 403.499 MHz Type=RS41 ser=T3950199 Radiosonde
LW9EYP-12T39501992022-12-06 11:51:45-34.5784-58.4152175351148Clb=6.0m/s t=23.0C h=8.8% 403.500MHz Type=RS41-SG rdzTTGOsonde
LW9EYP-15T39501992022-12-06 11:51:31-34.5771-58.4158153301037Clb=5.1m/s t=23.2C h=-1.0% p=-1.0hPa 403.500 MHz Type=RS41 ser=T3950199 Radiosonde
LW9EYP-12T39501992022-12-06 11:51:28-34.5769-58.4159160411026Clb=5.0m/s t=23.3C h=14.9% 403.500MHz Type=RS41-SG rdzTTGOsonde
LW9EYP-13T39501992022-12-06 11:51:18-34.5763-58.41616526992Clb=6.8m/s t=23.3C h=16.4% 403.500MHz Type=RS41-SG rdzTTGOsonde
LW9EYP-12T39501992022-12-06 11:50:59-34.5754-58.416220717902Clb=5.2m/s t=22.1C h=42.5% 403.500MHz Type=RS41-SG rdzTTGOsonde
LW9EYP-13T39501992022-12-06 11:50:51-34.575-58.416316417858Clb=5.4m/s t=21.8C 403.500MHz Type=RS41-SG rdzTTGOsonde
LW9EYP-12T39501992022-12-06 11:50:47-34.5743-58.416615226784Clb=6.2m/s t=22.2C h=57.4% 403.500MHz Type=RS41-SG rdzTTGOsonde
LW9EYP-13T39501992022-12-06 11:50:44-34.5737-58.416815735738Clb=4.5m/s t=22.6C 403.500MHz Type=RS41-SG rdzTTGOsonde
LW9EYP-12T39501992022-12-06 11:50:25-34.5726-58.417118726666Clb=5.2m/s t=23.1C h=54.6% 403.500MHz Type=RS41-SG rdzTTGOsonde
LW9EYP-13T39501992022-12-06 11:50:17-34.5721-58.417217643629Clb=3.5m/s t=23.4C 403.500MHz Type=RS41-SG rdzTTGOsonde
LW9EYP-12T39501992022-12-06 11:50:03-34.5709-58.417316841553Clb=4.8m/s t=23.9C h=54.3% 403.500MHz Type=RS41-SG rdzTTGOsonde
LW9EYP-13T39501992022-12-06 11:50:00-34.5702-58.417315537512Clb=7.5m/s 403.500MHz Type=RS41-SG rdzTTGOsonde
LW9EYP-12T39501992022-12-06 11:49:58-34.5691-58.417219028439Clb=5.4m/s 403.500MHz Type=RS41-SG rdzTTGOsonde
LW9EYP-13T39501992022-12-06 11:49:56-34.5683-58.417218644402Clb=6.1m/s 403.500MHz Type=RS41 rdzTTGOsonde
LW9EYP-12T39501992022-12-06 11:49:52-34.5672-58.417315435332Clb=7.3m/s 403.500MHz Type=RS41 rdzTTGOsonde
LW9EYP-13T39501992022-12-06 11:49:49-34.5664-58.417422313279Clb=3.1m/s 403.500MHz Type=RS41 rdzTTGOsonde
LW9EYP-12T39501992022-12-06 11:49:45-34.5657-58.417420233215Clb=6.1m/s 403.500MHz Type=RS41 rdzTTGOsonde